SAN weather

San Diego International Airport
San Diego, California, United States

Public forecast

Using degrees Fahrenheit for public forecast. Weather courtesy of forecast.io.

METAR (pilot weather report)

Retrieved 2017/06/27 01:51 UTC (1 hour ago):

KSAN 270151Z 31004KT 10SM CLR 26/17 A2990 RMK AO2 SLP125 T02560167

TAF (pilot weather forecast)

Forecast is more than 12 hours old.

Retrieved 2017/06/26 00:39 UTC (1 day ago):

TAF KSAN 262336Z 2700/2806 33006KT P6SM SKC FM270800 VRB04KT P6SM VCFG SCT002 FM271500 VRB04KT P6SM FEW004 FM271900 29010KT P6SM SKC FM280200 VRB04KT P6SM SCT005 FM280500 VRB04KT 5SM BR BKN005